Time;durP1;ratioP1;P1;durP2;ratioP2;P2;SDS_P1;SDS_P2;PMS_P1;PMS_P2;Temp;Humidity;BMP_temperature;BMP_pressure;BME280_temperature;BME280_humidity;BME280_pressure;Samples;Min_cycle;Max_cycle;Signal;HPM_P1;HPM_P2
2024/01/21 00:01:14;;;;;;;14.88;6.72;;;;;;;-1.69;96.69;102365.66;5070046;28;20124;-77
2024/01/21 00:03:39;;;;;;;11.68;5.35;;;;;;;-1.73;96.04;102359.72;5070134;28;20070;-77
2024/01/21 00:06:05;;;;;;;11.77;5.35;;;;;;;-1.77;96.59;102353.84;5068774;28;20047;-77
2024/01/21 00:08:30;;;;;;;14.90;5.85;;;;;;;-1.83;97.05;102342.84;5070040;28;20119;-77
2024/01/21 00:10:55;;;;;;;13.57;5.70;;;;;;;-1.88;98.18;102337.84;5069867;28;20060;-77
2024/01/21 00:13:21;;;;;;;11.52;6.13;;;;;;;-1.98;97.30;102320.94;5069984;28;20035;-77
2024/01/21 00:15:46;;;;;;;11.48;5.07;;;;;;;-1.94;95.25;102324.25;5069941;28;20077;-77
2024/01/21 00:18:11;;;;;;;13.48;6.00;;;;;;;-1.96;96.39;102316.50;5070044;28;20032;-77
2024/01/21 00:20:37;;;;;;;10.73;5.97;;;;;;;-2.00;93.60;102304.50;5068607;28;20029;-77
2024/01/21 00:23:02;;;;;;;10.43;5.45;;;;;;;-1.97;94.70;102317.41;5068700;28;20072;-77
2024/01/21 00:25:28;;;;;;;13.88;5.85;;;;;;;-1.99;93.29;102316.66;5070023;28;20025;-77
2024/01/21 00:27:53;;;;;;;11.85;5.22;;;;;;;-2.02;95.09;102311.56;5068280;28;20080;-78
2024/01/21 00:30:18;;;;;;;13.48;5.25;;;;;;;-2.07;94.91;102308.34;5069641;28;20052;-77
2024/01/21 00:32:44;;;;;;;11.80;5.43;;;;;;;-2.11;93.79;102306.81;5069724;28;20115;-77
2024/01/21 00:35:09;;;;;;;12.85;5.20;;;;;;;-2.14;94.49;102310.44;5069894;28;20478;-78
2024/01/21 00:37:35;;;;;;;9.93;4.43;;;;;;;-2.27;96.09;102291.91;5069846;28;20426;-77
2024/01/21 00:40:00;;;;;;;11.40;5.32;;;;;;;-2.31;95.92;102284.31;5069822;28;20079;-78
2024/01/21 00:42:25;;;;;;;13.18;5.93;;;;;;;-2.25;95.66;102297.91;5069632;28;20031;-77
2024/01/21 00:44:51;;;;;;;13.50;6.10;;;;;;;-2.27;96.24;102297.16;5069724;28;20021;-77
2024/01/21 00:47:16;;;;;;;13.02;5.72;;;;;;;-2.32;95.04;102293.06;5068447;28;20115;-77
2024/01/21 00:49:41;;;;;;;9.75;5.97;;;;;;;-2.32;96.23;102296.53;5069670;28;20024;-77
2024/01/21 00:52:08;;;;;;;11.55;4.72;;;;;;;-2.34;96.42;102294.91;5068052;28;20032;-77
2024/01/21 00:54:33;;;;;;;12.50;5.20;;;;;;;-2.36;95.26;102292.38;5068264;28;20029;-77
2024/01/21 00:56:59;;;;;;;10.82;4.25;;;;;;;-2.39;95.37;102299.53;5071915;28;20045;-77
2024/01/21 00:59:24;;;;;;;11.93;5.43;;;;;;;-2.42;94.52;102296.13;5073490;28;20047;-78
2024/01/21 01:01:49;;;;;;;15.93;5.93;;;;;;;-2.47;94.83;102292.06;5073495;28;20115;-77
2024/01/21 01:04:15;;;;;;;14.60;5.97;;;;;;;-2.55;95.12;102279.38;5073480;28;20037;-77
2024/01/21 01:06:40;;;;;;;11.80;5.13;;;;;;;-2.57;95.88;102281.22;5072356;28;20443;-77
2024/01/21 01:09:05;;;;;;;13.50;6.50;;;;;;;-2.55;95.72;102287.22;5073526;28;20129;-78
2024/01/21 01:11:31;;;;;;;12.85;6.50;;;;;;;-2.58;96.01;102281.31;5055408;28;20032;-77
2024/01/21 01:13:57;;;;;;;12.20;6.00;;;;;;;-2.55;95.10;102286.38;5073475;28;20038;-77
2024/01/21 01:16:22;;;;;;;13.10;5.45;;;;;;;-2.56;95.60;102279.47;5073447;28;20536;-77
2024/01/21 01:18:49;;;;;;;13.18;5.45;;;;;;;-2.57;95.19;102277.78;5073409;28;20027;-77
2024/01/21 01:21:14;;;;;;;13.65;4.53;;;;;;;-2.58;96.60;102268.25;5073326;28;20039;-77
2024/01/21 01:23:40;;;;;;;12.80;5.50;;;;;;;-2.58;96.61;102260.44;5073262;28;20036;-77
2024/01/21 01:26:07;;;;;;;10.95;5.40;;;;;;;-2.70;96.44;102235.75;5073046;28;20033;-77
2024/01/21 01:28:33;;;;;;;13.63;5.43;;;;;;;-2.62;98.04;102232.75;5072896;28;20564;-77
2024/01/21 01:30:58;;;;;;;11.85;5.00;;;;;;;-2.67;98.55;102231.25;5072887;28;20221;-77
2024/01/21 01:33:24;;;;;;;12.32;4.47;;;;;;;-2.79;98.30;102210.97;5073017;28;20031;-77
2024/01/21 01:35:50;;;;;;;10.90;5.25;;;;;;;-2.80;99.87;102211.03;5071617;28;20036;-77
2024/01/21 01:38:15;;;;;;;11.80;5.38;;;;;;;-2.88;99.38;102208.81;5072583;28;20357;-77
2024/01/21 01:40:41;;;;;;;9.73;4.07;;;;;;;-2.83;99.91;102206.78;5072692;28;20036;-77
2024/01/21 01:43:06;;;;;;;10.48;5.00;;;;;;;-2.85;98.87;102205.22;5072843;28;20028;-77
2024/01/21 01:45:32;;;;;;;13.73;5.47;;;;;;;-2.83;98.85;102198.13;5072764;28;20025;-77
2024/01/21 01:47:58;;;;;;;14.60;5.80;;;;;;;-2.85;98.45;102185.16;5072675;28;20032;-78
2024/01/21 01:50:25;;;;;;;13.73;5.38;;;;;;;-2.83;99.56;102183.31;5072662;28;20028;-77
2024/01/21 01:52:51;;;;;;;11.38;4.65;;;;;;;-2.84;99.60;102176.41;5072680;28;20051;-78
2024/01/21 01:55:17;;;;;;;13.63;5.20;;;;;;;-2.82;97.96;102165.91;5072552;28;20020;-77
2024/01/21 01:57:46;;;;;;;14.80;5.53;;;;;;;-2.84;99.06;102163.34;5072792;28;20040;-77
2024/01/21 02:00:12;;;;;;;9.90;4.85;;;;;;;-2.78;98.28;102164.81;5072592;28;20120;-77
2024/01/21 02:02:40;;;;;;;13.63;5.00;;;;;;;-2.76;97.34;102166.41;5071108;28;20036;-77
2024/01/21 02:05:06;;;;;;;12.68;5.88;;;;;;;-2.72;96.30;102167.97;5072315;28;20051;-77
2024/01/21 02:07:31;;;;;;;14.80;5.45;;;;;;;-2.73;96.29;102154.97;5071084;28;20498;-77
2024/01/21 02:09:56;;;;;;;9.27;4.68;;;;;;;-2.63;95.97;102156.19;5071952;28;20443;-77
2024/01/21 02:12:22;;;;;;;9.30;4.15;;;;;;;-2.59;95.36;102159.47;5072257;28;20037;-77
2024/01/21 02:14:48;;;;;;;13.27;5.05;;;;;;;-2.58;96.15;102154.19;5072301;28;20036;-77
2024/01/21 02:17:13;;;;;;;11.65;4.75;;;;;;;-2.59;94.10;102141.19;5072348;28;20487;-77
2024/01/21 02:19:38;;;;;;;10.95;4.22;;;;;;;-2.55;95.94;102145.34;5070870;28;20131;-78
2024/01/21 02:22:04;;;;;;;11.55;4.25;;;;;;;-2.62;93.97;102125.69;5071037;28;20075;-77
2024/01/21 02:24:30;;;;;;;10.77;4.75;;;;;;;-2.61;94.79;102114.34;5070725;28;20049;-77
2024/01/21 02:26:56;;;;;;;10.45;4.75;;;;;;;-2.57;95.17;102126.31;5069106;28;20029;-77
2024/01/21 02:29:22;;;;;;;9.27;4.20;;;;;;;-2.58;94.55;102122.00;5071735;28;20079;-78
2024/01/21 02:31:47;;;;;;;13.07;4.18;;;;;;;-2.58;95.34;102116.78;5071810;28;20064;-77
2024/01/21 02:34:12;;;;;;;10.45;5.20;;;;;;;-2.58;96.13;102116.78;5071952;28;20120;-77
2024/01/21 02:36:38;;;;;;;11.63;5.80;;;;;;;-2.61;95.67;102103.91;5071945;28;20072;-77
2024/01/21 02:39:03;;;;;;;9.95;3.58;;;;;;;-2.56;94.39;102112.34;5053728;28;20016;-77
2024/01/21 02:41:29;;;;;;;9.05;4.97;;;;;;;-2.54;93.41;102100.88;5071734;28;20032;-77
2024/01/21 02:43:54;;;;;;;11.63;4.30;;;;;;;-2.48;95.02;102108.38;5071692;28;20047;-78
2024/01/21 02:46:20;;;;;;;11.50;4.03;;;;;;;-2.43;94.49;102102.94;5071692;28;20035;-77
2024/01/21 02:48:45;;;;;;;11.88;4.85;;;;;;;-2.44;94.97;102091.63;5070331;28;20178;-77
2024/01/21 02:51:14;;;;;;;11.85;4.85;;;;;;;-2.39;92.96;102087.91;5071529;28;20047;-79
2024/01/21 02:53:40;;;;;;;9.38;3.22;;;;;;;-2.34;93.61;102094.59;5071401;28;20030;-77
2024/01/21 02:56:06;;;;;;;10.20;3.45;;;;;;;-2.27;93.00;102082.03;5071315;28;20040;-78
2024/01/21 02:58:31;;;;;;;11.38;3.78;;;;;;;-2.18;93.54;102084.16;5070024;28;20047;-78
2024/01/21 03:00:56;;;;;;;8.90;3.42;;;;;;;-2.18;91.59;102070.25;5071331;28;20111;-78
2024/01/21 03:03:22;;;;;;;10.88;3.80;;;;;;;-2.14;90.93;102066.53;5070075;28;20032;-78
2024/01/21 03:05:47;;;;;;;10.20;4.38;;;;;;;-2.13;91.85;102058.59;5071108;28;20029;-77
2024/01/21 03:08:14;;;;;;;10.07;3.60;;;;;;;-2.00;91.94;102070.06;5071070;28;20368;-77
2024/01/21 03:10:40;;;;;;;8.57;3.58;;;;;;;-2.00;91.83;102059.59;5071180;28;20028;-77
2024/01/21 03:13:07;;;;;;;12.57;5.43;;;;;;;-1.89;91.56;102066.00;5071112;28;20036;-80
2024/01/21 03:15:32;;;;;;;6.68;3.28;;;;;;;-1.87;92.94;102053.69;5069948;28;20484;-77
2024/01/21 03:17:57;;;;;;;8.55;4.00;;;;;;;-1.86;91.57;102047.53;5069589;28;20039;-78
2024/01/21 03:20:23;;;;;;;7.78;2.63;;;;;;;-1.88;92.32;102029.34;5069607;28;20110;-80
2024/01/21 03:22:48;;;;;;;6.90;3.22;;;;;;;-1.81;91.12;102035.91;5069600;28;20037;-79
2024/01/21 03:25:14;;;;;;;6.90;3.72;;;;;;;-1.78;92.07;102017.44;5071035;28;20040;-79
2024/01/21 03:27:39;;;;;;;9.32;4.65;;;;;;;-1.79;91.21;102001.81;5071293;28;20467;-79
2024/01/21 03:30:05;;;;;;;6.72;3.22;;;;;;;-1.74;91.85;102019.88;5070498;28;20053;-79
2024/01/21 03:32:30;;;;;;;8.52;3.45;;;;;;;-1.79;91.78;102012.28;5069719;28;20059;-79
2024/01/21 03:34:55;;;;;;;5.82;2.95;;;;;;;-1.77;92.54;102029.56;5070827;28;20024;-79
2024/01/21 03:37:21;;;;;;;7.10;3.22;;;;;;;-1.84;92.45;102030.00;5069614;28;20039;-79
2024/01/21 03:39:46;;;;;;;7.25;3.33;;;;;;;-1.90;93.47;102023.34;5070499;28;20021;-79
2024/01/21 03:42:12;;;;;;;9.52;3.63;;;;;;;-1.85;93.25;102029.16;5070454;28;20040;-79
2024/01/21 03:44:37;;;;;;;8.13;3.63;;;;;;;-1.93;93.69;102012.22;5070466;28;20052;-79
2024/01/21 03:47:02;;;;;;;6.45;2.90;;;;;;;-1.82;94.19;102031.59;5070322;28;20028;-79
2024/01/21 03:49:28;;;;;;;6.93;2.90;;;;;;;-1.85;94.51;102028.31;5070425;28;20079;-77
2024/01/21 03:51:54;;;;;;;7.53;3.20;;;;;;;-1.83;94.91;102022.06;5070186;28;20064;-77
2024/01/21 03:54:19;;;;;;;6.65;2.97;;;;;;;-1.84;96.03;102017.75;5070615;28;20089;-77
2024/01/21 03:56:45;;;;;;;4.82;2.90;;;;;;;-1.88;95.75;102007.59;5070299;28;20051;-79
2024/01/21 03:59:10;;;;;;;8.25;3.25;;;;;;;-1.79;95.69;102017.50;5070236;28;20028;-79
2024/01/21 04:01:44;;;;;;;5.90;3.13;;;;;;;-1.77;95.50;102013.88;5068925;28;20131;-79
2024/01/21 04:04:13;;;;;;;8.20;3.03;;;;;;;-1.65;95.86;102020.19;5070186;28;20539;-78
2024/01/21 04:06:42;;;;;;;5.50;2.28;;;;;;;-1.60;94.97;101996.34;5069927;28;20038;-79
2024/01/21 04:09:12;;;;;;;6.10;2.70;;;;;;;-1.49;95.70;101985.25;5068745;28;20037;-79
2024/01/21 04:11:41;;;;;;;5.90;2.70;;;;;;;-1.46;94.69;101972.84;5069833;28;20040;-79
2024/01/21 04:14:06;;;;;;;3.05;2.00;;;;;;;-1.41;93.84;101960.34;5070180;28;20202;-78
2024/01/21 04:16:32;;;;;;;8.55;2.85;;;;;;;-1.39;94.62;101963.72;5070052;28;20546;-79
2024/01/21 04:18:57;;;;;;;5.97;2.53;;;;;;;-1.38;95.07;101968.00;5068797;28;20461;-77
2024/01/21 04:21:22;;;;;;;7.88;2.70;;;;;;;-1.37;93.83;101968.84;5069809;28;20495;-77
2024/01/21 04:23:48;;;;;;;6.57;2.63;;;;;;;-1.39;94.35;101957.63;5069942;28;20029;-76
2024/01/21 04:26:13;;;;;;;4.72;2.45;;;;;;;-1.39;94.21;101955.88;5068508;28;20029;-78
2024/01/21 04:28:38;;;;;;;8.48;3.10;;;;;;;-1.41;93.48;101962.97;5069779;28;20080;-77
2024/01/21 04:31:04;;;;;;;7.53;2.35;;;;;;;-1.42;94.33;101960.44;5069098;28;20117;-77
2024/01/21 04:33:29;;;;;;;5.90;2.85;;;;;;;-1.39;94.90;101965.47;5069848;28;20052;-77
2024/01/21 04:35:55;;;;;;;3.90;1.95;;;;;;;-1.41;94.75;101951.66;5069683;28;20784;-77
2024/01/21 04:38:25;;;;;;;7.43;2.85;;;;;;;-1.38;94.50;101961.94;5069657;28;20021;-77
2024/01/21 04:40:51;;;;;;;7.30;4.57;;;;;;;-1.39;94.61;101953.25;5069375;28;20039;-77
2024/01/21 04:43:16;;;;;;;5.05;2.30;;;;;;;-1.43;95.18;101943.06;5068573;28;20043;-79
2024/01/21 04:45:42;;;;;;;8.45;3.13;;;;;;;-1.36;95.86;101934.75;5068335;28;20029;-78
2024/01/21 04:48:07;;;;;;;6.40;2.53;;;;;;;-1.33;95.66;101929.31;5069694;28;20062;-78
2024/01/21 04:50:32;;;;;;;6.35;3.13;;;;;;;-1.27;95.75;101916.81;5069711;28;20029;-78
2024/01/21 04:52:58;;;;;;;9.95;3.22;;;;;;;-1.23;96.08;101895.59;5069604;28;20032;-79
2024/01/21 04:55:23;;;;;;;6.22;2.75;;;;;;;-1.35;95.65;101878.03;5069577;28;20036;-79
2024/01/21 04:57:49;;;;;;;7.80;4.10;;;;;;;-1.26;95.60;101874.81;5069562;28;20510;-79
2024/01/21 05:00:14;;;;;;;9.10;3.58;;;;;;;-1.16;96.55;101881.16;5068249;28;20034;-79
2024/01/21 05:02:40;;;;;;;7.40;3.15;;;;;;;-1.10;95.85;101864.28;5068157;28;20459;-79
2024/01/21 05:05:05;;;;;;;6.43;3.42;;;;;;;-1.09;95.64;101865.94;5069514;28;20024;-79
2024/01/21 05:07:31;;;;;;;8.77;3.72;;;;;;;-1.07;96.20;101856.22;5068262;28;20033;-79
2024/01/21 05:09:56;;;;;;;8.10;3.67;;;;;;;-1.00;96.60;101873.19;5069423;28;20071;-79
2024/01/21 05:12:22;;;;;;;9.18;3.67;;;;;;;-1.01;96.89;101865.47;5069464;28;20024;-79
2024/01/21 05:14:47;;;;;;;8.05;4.63;;;;;;;-0.94;96.44;101867.59;5068326;28;20058;-79
2024/01/21 05:17:12;;;;;;;6.90;3.10;;;;;;;-0.91;96.17;101867.41;5060388;28;20040;-79
2024/01/21 05:19:38;;;;;;;7.95;3.20;;;;;;;-0.90;97.11;101878.72;5067962;28;20187;-79
2024/01/21 05:22:03;;;;;;;4.95;2.97;;;;;;;-0.84;96.47;101888.78;5067976;28;20047;-79
2024/01/21 05:24:29;;;;;;;9.57;5.53;;;;;;;-0.86;96.84;101884.59;5069298;28;20480;-79
2024/01/21 05:26:54;;;;;;;8.63;4.15;;;;;;;-0.81;97.81;101900.84;5069081;28;20111;-77
2024/01/21 05:29:19;;;;;;;9.40;3.33;;;;;;;-0.77;97.44;101905.81;5069188;28;20059;-77
2024/01/21 05:31:45;;;;;;;9.43;4.10;;;;;;;-0.70;96.71;101906.28;5068971;28;20088;-77
2024/01/21 05:34:10;;;;;;;7.95;3.83;;;;;;;-0.69;97.09;101886.97;5069131;28;20028;-77
2024/01/21 05:36:36;;;;;;;9.95;4.88;;;;;;;-0.60;96.95;101878.53;5067853;28;20120;-77
2024/01/21 05:39:03;;;;;;;11.07;4.88;;;;;;;-0.51;95.61;101870.06;5069149;28;20082;-77
2024/01/21 05:41:29;;;;;;;16.30;6.35;;;;;;;-0.49;97.24;101859.50;5069075;28;20037;-77
2024/01/21 05:43:55;;;;;;;11.00;5.25;;;;;;;-0.41;96.05;101859.84;5072778;28;20538;-77
2024/01/21 05:46:20;;;;;;;9.95;4.45;;;;;;;-0.35;95.57;101848.13;5072880;28;20483;-77
2024/01/21 05:48:46;;;;;;;7.03;3.58;;;;;;;-0.31;96.00;101866.16;5072733;28;20054;-77
2024/01/21 05:51:11;;;;;;;11.05;4.63;;;;;;;-0.26;96.87;101869.31;5072318;28;20494;-77
2024/01/21 05:53:38;;;;;;;11.15;5.10;;;;;;;-0.22;95.87;101865.53;5071456;28;20466;-77
2024/01/21 05:56:04;;;;;;;11.38;5.35;;;;;;;-0.21;95.25;101855.91;5072530;28;20024;-77
2024/01/21 05:58:30;;;;;;;10.73;4.82;;;;;;;-0.18;94.64;101850.47;5072809;28;20037;-77
2024/01/21 06:00:55;;;;;;;11.00;4.70;;;;;;;-0.15;94.87;101860.75;5072291;28;20036;-77
2024/01/21 06:03:20;;;;;;;8.07;4.30;;;;;;;-0.06;95.12;101861.91;5072270;28;20094;-77
2024/01/21 06:05:46;;;;;;;10.25;4.72;;;;;;;-0.03;94.91;101861.69;5072363;28;20024;-78
2024/01/21 06:08:11;;;;;;;10.95;4.53;;;;;;;-0.07;94.64;101858.44;5072370;28;20561;-77
2024/01/21 06:10:37;;;;;;;9.00;4.07;;;;;;;-0.01;93.96;101870.31;5070999;28;20533;-77
2024/01/21 06:13:02;;;;;;;14.18;5.07;;;;;;;0.04;93.36;101867.38;5072421;28;20111;-77
2024/01/21 06:15:27;;;;;;;10.63;4.75;;;;;;;0.06;93.11;101845.34;5070941;28;20590;-77
2024/01/21 06:17:53;;;;;;;10.38;4.00;;;;;;;0.01;93.60;101823.84;5071996;28;20131;-77
2024/01/21 06:20:18;;;;;;;10.38;4.55;;;;;;;0.13;93.32;101837.91;5072069;28;20017;-77
2024/01/21 06:22:44;;;;;;;12.15;6.15;;;;;;;0.02;94.36;101836.00;5072222;28;20043;-78
2024/01/21 06:25:11;;;;;;;10.15;5.10;;;;;;;0.10;93.45;101851.22;5071748;28;20025;-77
2024/01/21 06:27:37;;;;;;;10.10;4.05;;;;;;;0.17;93.13;101868.22;5071091;28;20074;-77
2024/01/21 06:30:16;;;;;;;13.00;5.32;;;;;;;0.27;92.79;101881.56;5071835;28;20052;-77
2024/01/21 06:32:42;;;;;;;9.27;4.80;;;;;;;0.28;92.61;101880.63;5071918;28;20711;-77
2024/01/21 06:35:07;;;;;;;11.73;4.50;;;;;;;0.31;92.61;101889.13;5071870;28;20445;-77
2024/01/21 06:37:32;;;;;;;12.25;5.05;;;;;;;0.32;91.53;101875.06;5071759;28;20048;-79
2024/01/21 06:39:58;;;;;;;9.20;4.90;;;;;;;0.36;90.80;101859.94;5071646;28;20115;-79
2024/01/21 06:42:23;;;;;;;11.93;4.80;;;;;;;0.40;91.84;101861.44;5071747;28;20085;-77
2024/01/21 06:44:49;;;;;;;10.27;4.50;;;;;;;0.37;91.43;101872.97;5071573;28;20033;-77
2024/01/21 06:47:14;;;;;;;11.43;5.28;;;;;;;0.43;91.24;101871.72;5071639;28;20028;-77
2024/01/21 06:49:39;;;;;;;12.85;5.57;;;;;;;0.49;90.57;101889.66;5071574;28;20028;-78
2024/01/21 06:52:07;;;;;;;10.90;4.32;;;;;;;0.50;88.93;101870.34;5071508;28;20115;-79
2024/01/21 06:54:33;;;;;;;10.27;3.90;;;;;;;0.55;89.37;101876.13;5071096;28;20083;-79
2024/01/21 06:56:58;;;;;;;7.70;3.85;;;;;;;0.48;89.99;101863.53;5071328;28;20087;-79
2024/01/21 06:59:24;;;;;;;11.88;5.43;;;;;;;0.57;90.19;101882.06;5071533;28;20024;-79
2024/01/21 07:01:50;;;;;;;9.43;4.18;;;;;;;0.58;89.89;101880.31;5071300;28;20037;-79
2024/01/21 07:04:18;;;;;;;7.70;4.07;;;;;;;0.55;89.25;101877.88;5071336;28;20078;-79
2024/01/21 07:06:44;;;;;;;10.85;4.78;;;;;;;0.65;89.21;101877.16;5071396;28;20099;-79
2024/01/21 07:09:10;;;;;;;11.43;5.32;;;;;;;0.67;89.09;101857.84;5071208;28;20033;-79
2024/01/21 07:11:35;;;;;;;9.82;4.43;;;;;;;0.68;88.60;101854.25;5071228;28;20059;-77
2024/01/21 07:14:03;;;;;;;11.20;4.97;;;;;;;0.71;89.13;101844.38;5071113;28;20082;-79
2024/01/21 07:16:28;;;;;;;10.45;4.68;;;;;;;0.72;88.86;101830.31;5069717;28;20031;-79
2024/01/21 07:18:54;;;;;;;6.97;4.25;;;;;;;0.73;89.54;101828.50;5070934;28;20375;-79
2024/01/21 07:21:20;;;;;;;13.23;5.38;;;;;;;0.73;88.35;101810.97;5070887;28;20036;-78
2024/01/21 07:23:47;;;;;;;14.85;5.40;;;;;;;0.72;88.05;101817.16;5070630;28;20106;-79
2024/01/21 07:26:12;;;;;;;12.20;4.88;;;;;;;0.73;88.86;101823.25;5070811;28;20040;-79
2024/01/21 07:28:38;;;;;;;12.52;4.78;;;;;;;0.73;88.13;101824.09;5070644;28;20040;-79
2024/01/21 07:31:03;;;;;;;12.60;4.40;;;;;;;0.76;87.77;101823.91;5052760;28;20052;-79
2024/01/21 07:33:29;;;;;;;13.40;4.70;;;;;;;0.78;87.69;101816.72;5070794;28;20123;-79
2024/01/21 07:35:54;;;;;;;12.55;5.82;;;;;;;0.76;88.18;101826.53;5069372;28;20028;-79
2024/01/21 07:38:19;;;;;;;10.80;4.50;;;;;;;0.74;87.10;101819.69;5069337;28;20379;-79
2024/01/21 07:40:47;;;;;;;9.02;5.22;;;;;;;0.69;87.02;101829.69;5069891;28;20036;-76
2024/01/21 07:43:12;;;;;;;13.23;4.25;;;;;;;0.75;87.69;101834.50;5069656;28;20032;-76
2024/01/21 07:45:38;;;;;;;9.23;4.28;;;;;;;0.73;88.31;101815.38;5069575;28;20032;-78
2024/01/21 07:48:03;;;;;;;10.90;4.97;;;;;;;0.74;86.87;101820.53;5069356;28;20460;-79
2024/01/21 07:50:29;;;;;;;9.15;3.97;;;;;;;0.75;86.91;101824.00;5069364;28;20044;-79
2024/01/21 07:52:54;;;;;;;10.60;4.25;;;;;;;0.76;87.21;101825.66;5070172;28;20064;-79
2024/01/21 07:55:19;;;;;;;9.13;4.22;;;;;;;0.77;87.55;101832.59;5069859;28;20047;-78
2024/01/21 07:57:45;;;;;;;11.05;4.85;;;;;;;0.77;87.79;101861.50;5069672;28;20074;-78
2024/01/21 08:00:10;;;;;;;12.25;4.80;;;;;;;0.75;88.29;101879.97;5070036;28;20020;-78
2024/01/21 08:02:36;;;;;;;11.57;4.25;;;;;;;0.72;86.73;101863.59;5070021;28;20388;-79
2024/01/21 08:05:01;;;;;;;14.02;5.03;;;;;;;0.76;86.97;101875.53;5068256;28;20078;-78
2024/01/21 08:07:27;;;;;;;8.05;4.35;;;;;;;0.86;87.67;101900.22;5069505;28;20024;-78
2024/01/21 08:09:52;;;;;;;11.40;5.35;;;;;;;0.85;88.05;101907.25;5069837;28;20032;-79
2024/01/21 08:12:18;;;;;;;11.93;4.45;;;;;;;0.89;87.02;101894.75;5068376;28;20040;-79
2024/01/21 08:14:43;;;;;;;12.43;4.55;;;;;;;0.88;87.24;101932.47;5069979;28;20035;-78
2024/01/21 08:17:09;;;;;;;7.65;3.80;;;;;;;0.83;87.66;101903.91;5069917;28;20044;-78
2024/01/21 08:19:37;;;;;;;12.57;4.22;;;;;;;0.86;87.23;101937.84;5069939;28;20016;-78
2024/01/21 08:22:03;;;;;;;15.57;4.68;;;;;;;0.86;87.26;101935.22;5069813;28;20036;-78
2024/01/21 08:24:28;;;;;;;12.13;4.60;;;;;;;0.92;86.67;101927.84;5069768;28;20044;-78
2024/01/21 08:26:53;;;;;;;13.75;5.20;;;;;;;1.00;87.12;101915.03;5068514;28;20396;-78
2024/01/21 08:29:19;;;;;;;9.30;4.25;;;;;;;1.12;85.83;101913.31;5069638;28;20117;-79
2024/01/21 08:31:44;;;;;;;11.15;4.88;;;;;;;1.25;86.75;101914.09;5067916;28;20094;-79
2024/01/21 08:34:10;;;;;;;9.40;4.03;;;;;;;1.32;85.74;101907.47;5067488;28;20033;-79
2024/01/21 08:36:36;;;;;;;12.13;5.43;;;;;;;1.34;86.46;101908.22;5067193;28;20043;-78
2024/01/21 08:39:05;;;;;;;10.52;4.60;;;;;;;1.36;87.79;101915.97;5067222;28;20132;-78
2024/01/21 08:41:34;;;;;;;13.40;4.78;;;;;;;1.35;87.07;101895.91;5065855;28;20028;-77
2024/01/21 08:44:00;;;;;;;9.93;3.60;;;;;;;1.42;87.63;101907.66;5067179;28;20025;-77
2024/01/21 08:46:25;;;;;;;9.60;4.35;;;;;;;1.30;87.07;101897.06;5067289;28;20043;-77
2024/01/21 08:48:50;;;;;;;9.55;4.03;;;;;;;1.46;86.67;101906.47;5068451;28;20144;-77
2024/01/21 08:51:16;;;;;;;9.90;4.70;;;;;;;1.45;87.54;101913.53;5066829;28;20093;-78
2024/01/21 08:53:41;;;;;;;8.27;3.53;;;;;;;1.44;88.50;101884.72;5067328;28;20403;-77
2024/01/21 08:56:06;;;;;;;9.35;4.88;;;;;;;1.52;87.74;101929.72;5066934;28;20032;-78
2024/01/21 08:58:32;;;;;;;11.73;4.75;;;;;;;1.48;88.49;101907.19;5066094;28;20105;-77
2024/01/21 09:00:57;;;;;;;10.77;4.20;;;;;;;1.62;89.08;101927.22;5066427;28;20594;-77
2024/01/21 09:03:23;;;;;;;9.68;4.35;;;;;;;1.63;89.05;101928.94;5066883;28;20490;-77
2024/01/21 09:05:48;;;;;;;8.73;4.72;;;;;;;1.67;89.25;101923.31;5066860;28;20032;-77
2024/01/21 09:08:13;;;;;;;8.15;3.80;;;;;;;1.77;89.53;101910.31;5066908;28;20553;-77
2024/01/21 09:10:39;;;;;;;10.40;4.25;;;;;;;1.85;90.18;101897.44;5066530;28;20103;-77
2024/01/21 09:13:05;;;;;;;10.35;4.13;;;;;;;1.92;91.19;101903.09;5066141;28;20029;-77
2024/01/21 09:15:30;;;;;;;6.85;3.22;;;;;;;1.97;91.73;101901.81;5065177;28;20044;-75
2024/01/21 09:17:56;;;;;;;14.98;5.03;;;;;;;1.94;92.37;101895.94;5069170;28;20395;-76
2024/01/21 09:20:21;;;;;;;9.98;4.30;;;;;;;1.96;93.81;101909.78;5069309;28;20036;-75
2024/01/21 09:22:47;;;;;;;8.25;3.85;;;;;;;1.97;94.21;101943.06;5068900;28;20119;-75
2024/01/21 09:25:12;;;;;;;8.70;4.03;;;;;;;1.99;95.85;101938.50;5068989;28;20032;-75
2024/01/21 09:27:37;;;;;;;9.48;4.72;;;;;;;1.94;96.22;101941.50;5070596;28;20044;-75
2024/01/21 09:30:03;;;;;;;10.82;4.20;;;;;;;1.96;96.77;101942.22;5068720;28;20985;-75
2024/01/21 09:32:29;;;;;;;12.23;3.50;;;;;;;1.98;98.35;101942.94;5070592;28;20076;-75
2024/01/21 09:34:54;;;;;;;6.88;3.03;;;;;;;1.89;99.71;101921.75;5070131;28;20044;-76
2024/01/21 09:37:19;;;;;;;11.52;5.20;;;;;;;2.00;99.84;101939.38;5070489;28;20383;-75
2024/01/21 09:39:45;;;;;;;10.55;4.35;;;;;;;1.97;100.00;101940.44;5070523;28;20482;-75
2024/01/21 09:42:10;;;;;;;8.85;4.53;;;;;;;2.04;100.00;101951.31;5068951;28;20089;-75
2024/01/21 09:44:36;;;;;;;12.32;5.13;;;;;;;2.04;100.00;101944.25;5069033;28;20078;-77
2024/01/21 09:47:02;;;;;;;11.50;4.68;;;;;;;2.11;100.00;101961.28;5070050;28;20032;-76
2024/01/21 09:49:28;;;;;;;10.30;4.50;;;;;;;2.07;100.00;101949.31;5068902;28;20028;-79
2024/01/21 09:51:54;;;;;;;9.00;4.43;;;;;;;2.07;100.00;101970.38;5070322;28;20958;-77
2024/01/21 09:54:21;;;;;;;12.05;4.13;;;;;;;2.06;100.00;101973.09;5070267;28;20040;-77
2024/01/21 09:56:47;;;;;;;8.98;4.50;;;;;;;1.98;100.00;101952.63;5067878;28;20436;-79
2024/01/21 09:59:13;;;;;;;6.07;3.38;;;;;;;2.00;100.00;101970.94;5069065;28;20064;-79
2024/01/21 10:01:40;;;;;;;10.20;4.75;;;;;;;2.01;100.00;101962.91;5069279;28;20029;-79
2024/01/21 10:04:10;;;;;;;14.98;5.05;;;;;;;2.00;100.00;101956.00;5070091;28;20035;-79
2024/01/21 10:06:35;;;;;;;12.15;4.97;;;;;;;2.00;100.00;101953.34;5069140;28;20029;-79
2024/01/21 10:09:17;;;;;;;11.70;4.63;;;;;;;1.95;100.00;101939.69;5070087;28;20033;-79
2024/01/21 10:11:48;;;;;;;9.90;4.93;;;;;;;2.04;100.00;101941.63;5069620;28;20020;-79
2024/01/21 10:14:13;;;;;;;13.35;5.45;;;;;;;2.08;100.00;101927.31;5069956;28;20059;-79
2024/01/21 10:16:45;;;;;;;17.52;5.55;;;;;;;2.17;100.00;101941.56;5069911;28;20155;-79
2024/01/21 10:19:16;;;;;;;14.90;5.63;;;;;;;2.18;100.00;101927.47;5070001;28;20034;-79
2024/01/21 10:21:42;;;;;;;9.55;4.18;;;;;;;2.29;100.00;101945.09;5069713;28;20021;-79
2024/01/21 10:24:09;;;;;;;10.43;4.75;;;;;;;2.36;100.00;101935.78;5069514;28;20375;-79
2024/01/21 10:26:41;;;;;;;10.05;4.65;;;;;;;2.42;100.00;101928.22;5069719;28;20043;-79
2024/01/21 10:29:07;;;;;;;9.05;4.63;;;;;;;2.44;100.00;101925.50;5068709;28;20392;-79
2024/01/21 10:31:33;;;;;;;10.40;4.15;;;;;;;2.45;100.00;101907.91;5069485;28;20064;-79
2024/01/21 10:34:01;;;;;;;10.25;4.65;;;;;;;2.50;100.00;101898.69;5069805;28;20115;-78
2024/01/21 10:36:32;;;;;;;7.28;3.67;;;;;;;2.50;100.00;101905.75;5067486;28;20094;-77
2024/01/21 10:39:00;;;;;;;15.02;5.50;;;;;;;2.51;100.00;101900.34;5070334;28;20096;-78
2024/01/21 10:41:31;;;;;;;12.18;5.70;;;;;;;2.61;100.00;101898.69;5069619;28;20025;-76
2024/01/21 10:43:59;;;;;;;13.30;4.70;;;;;;;2.62;100.00;101916.19;5069251;28;20032;-76
2024/01/21 10:46:25;;;;;;;11.38;4.95;;;;;;;2.61;100.00;101906.59;5069583;28;20872;-74
2024/01/21 10:49:00;;;;;;;11.13;6.07;;;;;;;2.60;100.00;101904.91;5069493;28;20024;-77
2024/01/21 10:51:26;;;;;;;11.10;5.50;;;;;;;2.61;100.00;101909.22;5069177;28;20499;-77
2024/01/21 10:53:53;;;;;;;13.50;5.32;;;;;;;2.61;100.00;101898.69;5067836;28;20045;-79
2024/01/21 10:56:19;;;;;;;14.13;6.30;;;;;;;2.58;100.00;101885.75;5069094;28;20058;-77
2024/01/21 10:58:47;;;;;;;16.83;6.57;;;;;;;2.63;100.00;101891.50;5069069;28;20126;-77
2024/01/21 11:01:15;;;;;;;9.07;5.13;;;;;;;2.55;100.00;101869.38;5068733;28;20032;-77
2024/01/21 11:03:43;;;;;;;14.77;5.22;;;;;;;2.69;100.00;101877.03;5068900;28;20103;-77
2024/01/21 11:06:10;;;;;;;14.90;5.57;;;;;;;2.71;100.00;101885.66;5068877;28;20028;-77
2024/01/21 11:08:37;;;;;;;12.95;6.00;;;;;;;2.76;100.00;101862.41;5068956;28;20422;-77
2024/01/21 11:11:08;;;;;;;11.15;5.60;;;;;;;2.79;100.00;101872.72;5068801;28;20033;-77
2024/01/21 11:13:51;;;;;;;12.82;6.53;;;;;;;2.84;100.00;101872.34;5068700;28;20067;-76
2024/01/21 11:16:25;;;;;;;12.85;6.50;;;;;;;2.91;100.00;101877.97;5068281;28;20671;-77